createdAt,value
2023-02-08T00:00:54.358Z,-2.50
2023-02-08T00:03:21.334Z,-2.50
2023-02-08T00:05:48.324Z,-2.50
2023-02-08T00:08:15.462Z,-2.50
2023-02-08T00:10:43.188Z,-2.50
2023-02-08T00:13:10.262Z,-2.50
2023-02-08T00:15:42.245Z,-2.50
2023-02-08T00:18:09.719Z,-2.50
2023-02-08T00:20:42.593Z,-2.50
2023-02-08T00:23:09.871Z,-2.60
2023-02-08T00:25:36.929Z,-2.60
2023-02-08T00:28:04.864Z,-2.70
2023-02-08T00:30:32.849Z,-2.70
2023-02-08T00:33:01.440Z,-2.70
2023-02-08T00:35:28.916Z,-2.70
2023-02-08T00:37:56.128Z,-2.70
2023-02-08T00:40:23.515Z,-2.80
2023-02-08T00:42:50.781Z,-2.80
2023-02-08T00:45:18.360Z,-2.70
2023-02-08T00:47:45.251Z,-2.70
2023-02-08T00:50:12.350Z,-2.70
2023-02-08T00:52:39.286Z,-2.70
2023-02-08T00:55:07.121Z,-2.80
2023-02-08T00:57:34.594Z,-2.80
2023-02-08T01:00:01.956Z,-2.80
2023-02-08T01:02:29.349Z,-2.80
2023-02-08T01:04:56.432Z,-2.70
2023-02-08T01:07:23.507Z,-2.80
2023-02-08T01:09:50.340Z,-2.80
2023-02-08T01:12:17.321Z,-2.80
2023-02-08T01:14:44.334Z,-2.70
2023-02-08T01:17:11.192Z,-2.60
2023-02-08T01:19:38.109Z,-2.60
2023-02-08T01:22:04.993Z,-2.60
2023-02-08T01:24:31.906Z,-2.60
2023-02-08T01:26:58.830Z,-2.60
2023-02-08T01:29:26.169Z,-2.50
2023-02-08T01:31:53.691Z,-2.60
2023-02-08T01:34:20.578Z,-2.60
2023-02-08T01:36:47.475Z,-2.60
2023-02-08T01:39:14.316Z,-2.60
2023-02-08T01:41:44.406Z,-2.60
2023-02-08T01:44:14.212Z,-2.60
2023-02-08T01:46:51.154Z,-2.70
2023-02-08T01:49:29.301Z,-2.80
2023-02-08T01:52:01.692Z,-2.70
2023-02-08T01:54:33.136Z,-2.70
2023-02-08T01:56:59.987Z,-2.70
2023-02-08T01:59:41.079Z,-2.70
2023-02-08T02:02:12.281Z,-2.70
2023-02-08T02:04:39.493Z,-2.80
2023-02-08T02:07:06.964Z,-2.80
2023-02-08T02:10:18.365Z,-2.80
2023-02-08T02:12:45.711Z,-2.70
2023-02-08T02:15:12.891Z,-2.70
2023-02-08T02:17:40.473Z,-2.70
2023-02-08T02:20:38.151Z,-2.70
2023-02-08T02:23:54.812Z,-2.70
2023-02-08T02:26:41.970Z,-2.70
2023-02-08T02:29:46.672Z,-2.80
2023-02-08T02:33:13.070Z,-2.90
2023-02-08T02:36:06.649Z,-2.90
2023-02-08T02:42:17.771Z,-2.80
2023-02-08T02:45:13.673Z,-2.80
2023-02-08T02:47:59.283Z,-2.80
2023-02-08T02:50:43.621Z,-2.80
2023-02-08T02:53:42.543Z,-2.90
2023-02-08T02:56:26.230Z,-2.90
2023-02-08T02:58:56.420Z,-2.90
2023-02-08T03:01:26.524Z,-3.00
2023-02-08T03:03:54.452Z,-3.10
2023-02-08T03:10:11.357Z,-3.20
2023-02-08T03:13:02.210Z,-3.20
2023-02-08T03:16:02.041Z,-3.20
2023-02-08T03:18:57.702Z,-3.20
2023-02-08T03:21:44.658Z,-3.20
2023-02-08T03:24:40.397Z,-3.10
2023-02-08T03:27:20.493Z,-3.00
2023-02-08T03:30:18.036Z,-3.00
2023-02-08T03:32:52.715Z,-3.00
2023-02-08T03:35:43.979Z,-2.90
2023-02-08T03:38:16.141Z,-3.00
2023-02-08T03:40:49.672Z,-2.90
2023-02-08T03:43:30.516Z,-2.90
2023-02-08T03:46:19.047Z,-3.00
2023-02-08T03:48:51.816Z,-3.00
2023-02-08T03:51:21.782Z,-3.10
2023-02-08T03:53:51.432Z,-3.10
2023-02-08T03:56:26.128Z,-3.10
2023-02-08T03:59:01.600Z,-3.10
2023-02-08T04:01:42.685Z,-3.20
2023-02-08T04:04:10.263Z,-3.30
2023-02-08T04:06:37.094Z,-3.30
2023-02-08T04:09:04.088Z,-3.40
2023-02-08T04:11:31.040Z,-3.50
2023-02-08T04:13:57.942Z,-3.50
2023-02-08T04:16:25.039Z,-3.50
2023-02-08T04:18:51.925Z,-3.50
2023-02-08T04:21:18.780Z,-3.60
2023-02-08T04:23:45.645Z,-3.70
2023-02-08T04:26:12.552Z,-3.70
2023-02-08T04:28:39.485Z,-3.70
2023-02-08T04:31:06.875Z,-3.70
2023-02-08T04:33:33.989Z,-3.70
2023-02-08T04:36:00.944Z,-3.80
2023-02-08T04:38:27.891Z,-3.80
2023-02-08T04:40:54.839Z,-3.80
2023-02-08T04:43:21.765Z,-3.80
2023-02-08T04:45:51.348Z,-3.90
2023-02-08T04:48:19.081Z,-4.00
2023-02-08T04:50:46.092Z,-4.10
2023-02-08T04:53:13.075Z,-3.90
2023-02-08T04:55:39.968Z,-3.80
2023-02-08T04:58:06.858Z,-3.70
2023-02-08T05:00:34.092Z,-3.80
2023-02-08T05:03:01.103Z,-3.80
2023-02-08T05:05:28.601Z,-3.90
2023-02-08T05:07:55.545Z,-3.90
2023-02-08T05:10:22.646Z,-3.90
2023-02-08T05:12:49.563Z,-4.00
2023-02-08T05:15:16.655Z,-3.90
2023-02-08T05:17:43.558Z,-3.90
2023-02-08T05:20:11.689Z,-3.90
2023-02-08T05:22:38.650Z,-3.80
2023-02-08T05:25:06.179Z,-3.70
2023-02-08T05:27:35.057Z,-3.70
2023-02-08T05:30:02.073Z,-3.70
2023-02-08T05:32:29.464Z,-3.70
2023-02-08T05:34:56.379Z,-3.60
2023-02-08T05:37:23.351Z,-3.60
2023-02-08T05:39:50.192Z,-3.50
2023-02-08T05:42:17.073Z,-3.50
2023-02-08T05:44:43.958Z,-3.40
2023-02-08T05:47:10.817Z,-3.40
2023-02-08T05:49:37.690Z,-3.50
2023-02-08T05:52:04.788Z,-3.50
2023-02-08T05:54:31.647Z,-3.60
2023-02-08T05:56:58.568Z,-3.70
2023-02-08T05:59:25.484Z,-3.80
2023-02-08T06:01:52.376Z,-3.90
2023-02-08T06:04:19.281Z,-3.90
2023-02-08T06:06:46.355Z,-3.90
2023-02-08T06:09:13.223Z,-3.90
2023-02-08T06:11:40.124Z,-4.00
2023-02-08T06:14:06.976Z,-4.10
2023-02-08T06:16:33.881Z,-4.30
2023-02-08T06:19:01.120Z,-4.30
2023-02-08T06:21:28.473Z,-4.30
2023-02-08T06:23:55.673Z,-4.20
2023-02-08T06:26:22.578Z,-4.30
2023-02-08T06:28:49.461Z,-4.20
2023-02-08T06:31:17.103Z,-4.30
2023-02-08T06:33:44.081Z,-4.40
2023-02-08T06:36:10.969Z,-4.50
2023-02-08T06:38:37.898Z,-4.50
2023-02-08T06:41:04.926Z,-4.50
2023-02-08T06:43:31.903Z,-4.50
2023-02-08T06:45:58.779Z,-4.40
2023-02-08T06:48:25.792Z,-4.20
2023-02-08T06:50:53.929Z,-4.10
2023-02-08T06:53:21.670Z,-4.00
2023-02-08T06:55:51.855Z,-3.90
2023-02-08T06:58:19.598Z,-4.00
2023-02-08T07:00:46.733Z,-4.00
2023-02-08T07:03:14.450Z,-4.10
2023-02-08T07:05:45.224Z,-4.00
2023-02-08T07:08:16.801Z,-3.90
2023-02-08T07:10:46.143Z,-3.80
2023-02-08T07:13:13.321Z,-3.50
2023-02-08T07:15:40.241Z,-3.00
2023-02-08T07:18:07.086Z,-2.40
2023-02-08T07:20:33.941Z,-2.00
2023-02-08T07:23:00.874Z,-1.50
2023-02-08T07:25:27.815Z,-1.10
2023-02-08T07:27:54.688Z,-0.60
2023-02-08T07:30:21.905Z,-0.10
2023-02-08T07:32:49.303Z,0.10
2023-02-08T07:35:16.261Z,0.10
2023-02-08T07:37:43.123Z,0.30
2023-02-08T07:40:11.163Z,0.60
2023-02-08T07:42:38.111Z,0.60
2023-02-08T07:45:05.544Z,1.00
2023-02-08T07:47:32.416Z,1.60
2023-02-08T07:49:59.342Z,2.20
2023-02-08T07:52:26.214Z,2.60
2023-02-08T07:54:53.035Z,2.50
2023-02-08T07:57:22.171Z,2.20
2023-02-08T07:59:49.088Z,1.80
2023-02-08T08:02:16.624Z,1.90
2023-02-08T08:04:43.590Z,2.40
2023-02-08T08:07:10.808Z,2.30
2023-02-08T08:09:37.699Z,2.30
2023-02-08T08:12:05.400Z,2.70
2023-02-08T08:14:32.331Z,2.60
2023-02-08T08:16:59.533Z,2.80
2023-02-08T08:19:26.791Z,2.70
2023-02-08T08:21:53.837Z,2.80
2023-02-08T08:24:20.758Z,2.80
2023-02-08T08:26:47.754Z,2.90
2023-02-08T08:29:15.107Z,3.10
2023-02-08T08:31:44.315Z,3.20
2023-02-08T08:34:11.640Z,3.30
2023-02-08T08:36:38.604Z,3.40
2023-02-08T08:39:05.724Z,3.50
2023-02-08T08:41:32.632Z,3.70
2023-02-08T08:43:59.518Z,3.90
2023-02-08T08:46:27.310Z,4.00
2023-02-08T08:48:54.257Z,4.30
2023-02-08T08:51:21.201Z,4.80
2023-02-08T08:53:48.078Z,5.20
2023-02-08T08:56:14.946Z,5.00
2023-02-08T08:58:43.516Z,5.10
2023-02-08T09:01:10.757Z,5.00
2023-02-08T09:03:37.749Z,4.70
2023-02-08T09:06:04.861Z,4.00
2023-02-08T09:08:31.802Z,3.90
2023-02-08T09:11:08.891Z,4.00
2023-02-08T09:13:36.368Z,4.40
2023-02-08T09:16:14.508Z,4.50
2023-02-08T09:18:42.331Z,4.70
2023-02-08T09:21:11.862Z,4.90
2023-02-08T09:23:38.940Z,4.70
2023-02-08T09:26:08.131Z,5.20
2023-02-08T09:28:35.077Z,5.50
2023-02-08T09:31:25.559Z,5.60
2023-02-08T09:33:56.803Z,5.70
2023-02-08T09:36:25.948Z,6.10
2023-02-08T09:39:00.424Z,5.90
2023-02-08T09:42:06.259Z,6.00
2023-02-08T09:45:04.676Z,6.40
2023-02-08T09:47:36.226Z,6.50
2023-02-08T09:50:21.264Z,6.70
2023-02-08T09:53:03.176Z,6.90
2023-02-08T09:55:51.929Z,6.70
2023-02-08T09:58:34.719Z,7.00
2023-02-08T10:01:04.111Z,6.90
2023-02-08T10:03:45.221Z,6.90
2023-02-08T10:06:15.775Z,6.90
2023-02-08T10:08:44.346Z,6.60
2023-02-08T10:11:58.273Z,6.70
2023-02-08T10:15:20.356Z,6.60
2023-02-08T10:18:26.873Z,6.60
2023-02-08T10:21:19.321Z,6.60
2023-02-08T10:24:13.403Z,6.80
2023-02-08T10:26:54.617Z,6.90
2023-02-08T10:29:51.794Z,6.90
2023-02-08T10:32:57.676Z,6.70
2023-02-08T10:35:37.848Z,6.60
2023-02-08T10:38:45.735Z,6.40
2023-02-08T10:41:22.005Z,6.40
2023-02-08T10:44:28.223Z,6.00
2023-02-08T10:47:22.661Z,6.00
2023-02-08T10:50:12.576Z,5.70
2023-02-08T10:52:39.484Z,5.70
2023-02-08T10:55:18.500Z,5.70
2023-02-08T10:57:48.450Z,5.60
2023-02-08T11:00:22.475Z,5.60
2023-02-08T11:02:52.944Z,5.50
2023-02-08T11:05:37.637Z,5.60
2023-02-08T11:08:17.745Z,5.70
2023-02-08T11:10:56.489Z,5.80
2023-02-08T11:13:26.514Z,5.80
2023-02-08T11:15:57.620Z,5.80
2023-02-08T11:18:36.193Z,5.80
2023-02-08T11:21:05.799Z,5.60
2023-02-08T11:23:36.304Z,5.50
2023-02-08T11:26:38.594Z,5.40
2023-02-08T11:29:27.173Z,5.40
2023-02-08T11:32:06.270Z,5.50
2023-02-08T11:34:39.000Z,5.60
2023-02-08T11:37:16.860Z,5.70
2023-02-08T11:39:50.017Z,5.60
2023-02-08T11:42:29.844Z,5.70
2023-02-08T11:44:59.870Z,5.70
2023-02-08T11:47:30.331Z,5.70
2023-02-08T11:50:02.939Z,5.60
2023-02-08T11:52:41.720Z,5.60
2023-02-08T11:55:28.026Z,5.60
2023-02-08T11:58:05.637Z,5.60
2023-02-08T12:00:38.300Z,5.60
2023-02-08T12:03:13.959Z,5.60
2023-02-08T12:06:16.261Z,5.60
2023-02-08T12:09:13.540Z,5.60
2023-02-08T12:11:47.438Z,5.70
2023-02-08T12:15:06.846Z,5.70
2023-02-08T12:17:59.649Z,5.80
2023-02-08T12:21:26.488Z,5.80
2023-02-08T12:24:06.907Z,5.70
2023-02-08T12:27:27.590Z,5.80
2023-02-08T12:30:25.307Z,5.70
2023-02-08T12:39:59.428Z,5.80
2023-02-08T12:42:48.586Z,5.80
2023-02-08T12:45:54.344Z,5.90
2023-02-08T12:49:06.649Z,6.00
2023-02-08T12:52:34.271Z,5.90
2023-02-08T12:55:25.849Z,6.00
2023-02-08T12:58:00.106Z,6.00
2023-02-08T13:00:30.426Z,6.00
2023-02-08T13:03:42.695Z,6.10
2023-02-08T13:06:16.733Z,6.10
2023-02-08T13:09:14.205Z,6.10
2023-02-08T13:11:55.705Z,6.00
2023-02-08T13:15:24.796Z,6.10
2023-02-08T13:18:09.999Z,6.10
2023-02-08T13:21:14.047Z,6.10
2023-02-08T13:23:52.466Z,6.10
2023-02-08T13:26:34.431Z,6.00
2023-02-08T13:29:03.888Z,6.00
2023-02-08T13:31:39.293Z,6.10
2023-02-08T13:34:27.250Z,6.10
2023-02-08T13:36:59.698Z,6.10
2023-02-08T13:39:41.613Z,6.10
2023-02-08T13:42:35.038Z,6.10
2023-02-08T13:45:03.433Z,6.10
2023-02-08T13:47:32.991Z,6.10
2023-02-08T13:50:07.930Z,6.10
2023-02-08T13:52:55.125Z,6.10
2023-02-08T13:55:53.504Z,6.20
2023-02-08T13:58:49.427Z,6.20
2023-02-08T14:01:16.190Z,6.20
2023-02-08T14:03:43.690Z,6.20
2023-02-08T14:06:24.459Z,6.20
2023-02-08T14:09:07.078Z,6.20
2023-02-08T14:11:49.705Z,6.10
2023-02-08T14:14:32.186Z,6.10
2023-02-08T14:17:29.212Z,6.10
2023-02-08T14:20:00.237Z,6.10
2023-02-08T14:22:37.614Z,6.10
2023-02-08T14:25:26.399Z,6.10
2023-02-08T14:27:59.282Z,6.10
2023-02-08T14:30:36.739Z,6.30
2023-02-08T14:33:16.961Z,7.20
2023-02-08T14:35:56.618Z,8.40
2023-02-08T14:39:03.989Z,9.40
2023-02-08T14:42:03.955Z,10.10
2023-02-08T14:45:00.772Z,10.20
2023-02-08T14:47:47.810Z,9.60
2023-02-08T14:50:20.771Z,9.90
2023-02-08T14:52:58.155Z,9.90
2023-02-08T14:55:28.391Z,9.80
2023-02-08T14:57:56.542Z,9.70
2023-02-08T15:00:28.638Z,9.40
2023-02-08T15:02:57.662Z,9.30
2023-02-08T15:05:30.094Z,9.20
2023-02-08T15:07:59.485Z,8.60
2023-02-08T15:10:28.670Z,8.20
2023-02-08T15:13:03.836Z,7.40
2023-02-08T15:15:42.869Z,6.90
2023-02-08T15:18:24.286Z,6.40
2023-02-08T15:21:06.274Z,6.20
2023-02-08T15:23:33.342Z,6.00
2023-02-08T15:26:03.564Z,6.00
2023-02-08T15:28:33.957Z,5.90
2023-02-08T15:31:10.737Z,5.80
2023-02-08T15:33:40.220Z,5.70
2023-02-08T15:36:15.706Z,5.70
2023-02-08T15:38:45.020Z,5.60
2023-02-08T15:41:24.376Z,5.60
2023-02-08T15:43:51.462Z,5.50
2023-02-08T15:46:25.685Z,5.40
2023-02-08T15:48:53.759Z,5.40
2023-02-08T15:51:23.255Z,5.30
2023-02-08T15:53:53.670Z,5.30
2023-02-08T15:56:38.058Z,5.30
2023-02-08T15:59:08.177Z,5.20
2023-02-08T16:01:35.358Z,5.20
2023-02-08T16:04:12.654Z,5.10
2023-02-08T16:06:46.428Z,5.00
2023-02-08T16:09:19.108Z,4.80
2023-02-08T16:11:50.059Z,4.70
2023-02-08T16:14:19.601Z,4.60
2023-02-08T16:16:51.376Z,4.50
2023-02-08T16:19:26.960Z,4.50
2023-02-08T16:22:22.961Z,4.50
2023-02-08T16:24:51.078Z,4.40
2023-02-08T16:27:26.938Z,4.30
2023-02-08T16:29:54.192Z,4.20
2023-02-08T16:32:29.888Z,4.20
2023-02-08T16:34:57.661Z,4.00
2023-02-08T16:37:33.652Z,4.00
2023-02-08T16:40:21.416Z,3.90
2023-02-08T16:42:48.317Z,3.90
2023-02-08T16:45:18.187Z,3.80
2023-02-08T16:47:54.729Z,3.70
2023-02-08T16:50:24.639Z,3.50
2023-02-08T16:53:03.336Z,3.40
2023-02-08T16:55:33.198Z,3.50
2023-02-08T16:58:00.606Z,3.40
2023-02-08T17:00:33.915Z,3.40
2023-02-08T17:03:01.714Z,3.40
2023-02-08T17:05:36.919Z,3.40
2023-02-08T17:08:08.010Z,3.40
2023-02-08T17:10:35.512Z,3.20
2023-02-08T17:13:20.608Z,3.10
2023-02-08T17:15:50.365Z,2.90
2023-02-08T17:18:17.472Z,2.70
2023-02-08T17:20:45.100Z,2.70
2023-02-08T17:23:12.577Z,2.60
2023-02-08T17:25:39.991Z,2.40
2023-02-08T17:28:16.119Z,2.30
2023-02-08T17:30:44.593Z,2.30
2023-02-08T17:33:20.856Z,2.20
2023-02-08T17:35:50.541Z,2.30
2023-02-08T17:38:18.524Z,2.40
2023-02-08T17:40:45.616Z,2.40
2023-02-08T17:43:13.042Z,2.30
2023-02-08T17:45:42.716Z,2.30
2023-02-08T17:48:10.230Z,2.10
2023-02-08T17:50:37.246Z,2.20
2023-02-08T17:53:04.241Z,2.20
2023-02-08T17:55:31.429Z,2.10
2023-02-08T17:57:58.563Z,2.00
2023-02-08T18:00:26.205Z,1.80
2023-02-08T18:02:55.360Z,1.70
2023-02-08T18:05:27.573Z,1.70
2023-02-08T18:07:56.475Z,1.60
2023-02-08T18:10:25.092Z,1.60
2023-02-08T18:12:52.056Z,1.60
2023-02-08T18:15:21.811Z,1.80
2023-02-08T18:17:50.508Z,1.90
2023-02-08T18:20:18.535Z,1.90
2023-02-08T18:22:46.184Z,1.80
2023-02-08T18:25:14.521Z,1.80
2023-02-08T18:27:41.807Z,1.80
2023-02-08T18:30:10.458Z,1.90
2023-02-08T18:32:37.907Z,1.80
2023-02-08T18:35:07.413Z,1.90
2023-02-08T18:37:35.461Z,1.80
2023-02-08T18:40:03.040Z,1.80
2023-02-08T18:42:31.713Z,1.80
2023-02-08T18:44:58.767Z,1.90
2023-02-08T18:47:25.698Z,1.90
2023-02-08T18:49:56.507Z,1.80
2023-02-08T18:52:24.154Z,1.70
2023-02-08T18:54:51.310Z,1.60
2023-02-08T18:57:18.688Z,1.70
2023-02-08T18:59:45.737Z,1.70
2023-02-08T19:02:19.665Z,1.80
2023-02-08T19:04:46.999Z,1.80
2023-02-08T19:07:15.082Z,1.90
2023-02-08T19:09:43.825Z,2.00
2023-02-08T19:12:10.943Z,2.00
2023-02-08T19:14:37.902Z,2.00
2023-02-08T19:17:04.844Z,2.00
2023-02-08T19:19:31.712Z,2.00
2023-02-08T19:21:58.616Z,1.90
2023-02-08T19:24:25.602Z,1.80
2023-02-08T19:26:52.537Z,1.60
2023-02-08T19:29:22.871Z,1.50
2023-02-08T19:31:50.712Z,1.40
2023-02-08T19:34:18.518Z,1.30
2023-02-08T19:36:53.588Z,1.10
2023-02-08T19:39:23.605Z,0.90
2023-02-08T19:41:52.780Z,0.80
2023-02-08T19:44:20.587Z,0.70
2023-02-08T19:46:52.701Z,0.70
2023-02-08T19:49:20.501Z,0.60
2023-02-08T19:51:47.816Z,0.50
2023-02-08T19:54:17.148Z,0.40
2023-02-08T19:56:44.203Z,0.40
2023-02-08T19:59:33.661Z,0.40
2023-02-08T20:02:02.057Z,0.40
2023-02-08T20:04:29.135Z,0.30
2023-02-08T20:06:56.224Z,0.20
2023-02-08T20:09:23.088Z,0.10
2023-02-08T20:11:59.718Z,0.10
2023-02-08T20:14:33.044Z,-0.10
2023-02-08T20:17:04.439Z,-0.30
2023-02-08T20:19:31.561Z,-0.50
2023-02-08T20:21:58.460Z,-0.50
2023-02-08T20:24:25.365Z,-0.60
2023-02-08T20:26:52.262Z,-0.70
2023-02-08T20:29:19.184Z,-0.80
2023-02-08T20:31:50.203Z,-0.90
2023-02-08T20:34:18.921Z,-1.00
2023-02-08T20:37:04.545Z,-1.00
2023-02-08T20:39:33.978Z,-0.90
2023-02-08T20:42:00.852Z,-0.90
2023-02-08T20:44:28.642Z,-0.90
2023-02-08T20:46:55.755Z,-0.90
2023-02-08T20:49:26.986Z,-1.00
2023-02-08T20:51:54.765Z,-1.00
2023-02-08T20:54:24.644Z,-1.10
2023-02-08T20:56:53.629Z,-1.10
2023-02-08T20:59:21.034Z,-0.90
2023-02-08T21:01:47.989Z,-0.70
2023-02-08T21:04:17.037Z,-0.60
2023-02-08T21:06:46.075Z,-0.50
2023-02-08T21:09:15.976Z,-0.50
2023-02-08T21:11:44.167Z,-0.60
2023-02-08T21:14:15.390Z,-0.70
2023-02-08T21:16:42.415Z,-0.90
2023-02-08T21:19:10.864Z,-0.90
2023-02-08T21:21:37.808Z,-0.70
2023-02-08T21:24:05.076Z,-0.70
2023-02-08T21:26:32.208Z,-0.80
2023-02-08T21:28:59.291Z,-0.80
2023-02-08T21:31:26.919Z,-0.90
2023-02-08T21:33:53.996Z,-1.00
2023-02-08T21:36:24.731Z,-1.20
2023-02-08T21:38:52.082Z,-1.30
2023-02-08T21:41:22.380Z,-1.40
2023-02-08T21:43:50.295Z,-1.50
2023-02-08T21:46:18.256Z,-1.60
2023-02-08T21:49:03.885Z,-1.70
2023-02-08T21:51:49.588Z,-1.70
2023-02-08T21:54:44.798Z,-1.70
2023-02-08T21:57:19.224Z,-1.70
2023-02-08T21:59:47.938Z,-1.80
2023-02-08T22:02:21.881Z,-1.90
2023-02-08T22:04:49.570Z,-2.10
2023-02-08T22:07:16.536Z,-2.20
2023-02-08T22:09:43.746Z,-2.40
2023-02-08T22:12:15.903Z,-2.60
2023-02-08T22:14:43.194Z,-2.70
2023-02-08T22:17:10.774Z,-2.80
2023-02-08T22:19:40.117Z,-2.90
2023-02-08T22:22:07.878Z,-2.90
2023-02-08T22:24:35.601Z,-3.00
2023-02-08T22:27:03.071Z,-2.90
2023-02-08T22:29:29.996Z,-2.90
2023-02-08T22:31:58.033Z,-2.80
2023-02-08T22:34:27.085Z,-2.80
2023-02-08T22:36:54.021Z,-2.80
2023-02-08T22:39:21.285Z,-2.80
2023-02-08T22:41:48.390Z,-2.80
2023-02-08T22:44:15.360Z,-2.90
2023-02-08T22:46:42.289Z,-3.00
2023-02-08T22:49:09.205Z,-3.00
2023-02-08T22:51:36.202Z,-2.90
2023-02-08T22:54:03.253Z,-2.70
2023-02-08T22:56:30.154Z,-2.70
2023-02-08T22:58:58.699Z,-2.70
2023-02-08T23:01:27.167Z,-2.70
2023-02-08T23:03:54.063Z,-2.80
2023-02-08T23:06:21.026Z,-2.70
2023-02-08T23:08:48.350Z,-2.60
2023-02-08T23:11:15.733Z,-2.70
2023-02-08T23:13:42.625Z,-2.70
2023-02-08T23:16:12.616Z,-2.60
2023-02-08T23:18:40.121Z,-2.60
2023-02-08T23:21:08.736Z,-2.70
2023-02-08T23:23:36.457Z,-2.80
2023-02-08T23:26:14.021Z,-2.90
2023-02-08T23:28:41.159Z,-3.10
2023-02-08T23:31:10.151Z,-3.10
2023-02-08T23:33:37.908Z,-3.20
2023-02-08T23:36:06.419Z,-3.30
2023-02-08T23:38:33.476Z,-3.30
2023-02-08T23:41:12.066Z,-3.40
2023-02-08T23:43:39.057Z,-3.30
2023-02-08T23:46:29.953Z,-3.40
2023-02-08T23:48:57.017Z,-3.60
2023-02-08T23:51:25.140Z,-3.70
2023-02-08T23:53:54.216Z,-3.70
2023-02-08T23:56:27.396Z,-3.70
2023-02-08T23:58:56.717Z,-3.50
